sensor_id;sensor_type;location;lat;lon;timestamp;P1;durP1;ratioP1;P2;durP2;ratioP2
2620;SDS011;1320;48.128;11.592;2023-08-17T00:02:17;10.17;;;8.73;;
2620;SDS011;1320;48.128;11.592;2023-08-17T00:04:43;8.90;;;7.30;;
2620;SDS011;1320;48.128;11.592;2023-08-17T00:07:08;8.57;;;7.50;;
2620;SDS011;1320;48.128;11.592;2023-08-17T00:09:34;14.50;;;8.07;;
2620;SDS011;1320;48.128;11.592;2023-08-17T00:12:00;11.47;;;8.37;;
2620;SDS011;1320;48.128;11.592;2023-08-17T00:14:26;10.83;;;7.80;;
2620;SDS011;1320;48.128;11.592;2023-08-17T00:16:52;8.33;;;7.47;;
2620;SDS011;1320;48.128;11.592;2023-08-17T00:19:18;9.00;;;7.27;;
2620;SDS011;1320;48.128;11.592;2023-08-17T00:21:46;9.03;;;6.93;;
2620;SDS011;1320;48.128;11.592;2023-08-17T00:24:12;16.17;;;8.97;;
2620;SDS011;1320;48.128;11.592;2023-08-17T00:26:37;12.60;;;8.40;;
2620;SDS011;1320;48.128;11.592;2023-08-17T00:29:03;10.40;;;7.77;;
2620;SDS011;1320;48.128;11.592;2023-08-17T00:31:29;10.23;;;7.80;;
2620;SDS011;1320;48.128;11.592;2023-08-17T00:33:55;9.00;;;7.90;;
2620;SDS011;1320;48.128;11.592;2023-08-17T00:36:20;9.97;;;9.03;;
2620;SDS011;1320;48.128;11.592;2023-08-17T00:38:46;10.10;;;8.33;;
2620;SDS011;1320;48.128;11.592;2023-08-17T00:41:12;8.80;;;7.80;;
2620;SDS011;1320;48.128;11.592;2023-08-17T00:43:37;8.63;;;7.50;;
2620;SDS011;1320;48.128;11.592;2023-08-17T00:46:03;9.43;;;8.53;;
2620;SDS011;1320;48.128;11.592;2023-08-17T00:48:29;10.13;;;7.73;;
2620;SDS011;1320;48.128;11.592;2023-08-17T00:50:56;9.00;;;7.50;;
2620;SDS011;1320;48.128;11.592;2023-08-17T00:53:24;9.17;;;8.20;;
2620;SDS011;1320;48.128;11.592;2023-08-17T00:55:52;8.87;;;7.77;;
2620;SDS011;1320;48.128;11.592;2023-08-17T00:58:18;11.20;;;8.20;;
2620;SDS011;1320;48.128;11.592;2023-08-17T01:00:45;12.53;;;8.70;;
2620;SDS011;1320;48.128;11.592;2023-08-17T01:03:11;11.77;;;7.93;;
2620;SDS011;1320;48.128;11.592;2023-08-17T01:05:36;10.87;;;8.80;;
2620;SDS011;1320;48.128;11.592;2023-08-17T01:08:02;9.57;;;8.10;;
2620;SDS011;1320;48.128;11.592;2023-08-17T01:10:31;9.77;;;8.27;;
2620;SDS011;1320;48.128;11.592;2023-08-17T01:13:09;11.13;;;7.70;;
2620;SDS011;1320;48.128;11.592;2023-08-17T01:15:46;8.70;;;7.80;;
2620;SDS011;1320;48.128;11.592;2023-08-17T01:18:26;11.90;;;8.20;;
2620;SDS011;1320;48.128;11.592;2023-08-17T01:20:56;9.37;;;8.00;;
2620;SDS011;1320;48.128;11.592;2023-08-17T01:23:22;11.30;;;7.73;;
2620;SDS011;1320;48.128;11.592;2023-08-17T01:25:48;10.07;;;8.17;;
2620;SDS011;1320;48.128;11.592;2023-08-17T01:28:14;10.03;;;9.03;;
2620;SDS011;1320;48.128;11.592;2023-08-17T01:33:22;11.20;;;9.07;;
2620;SDS011;1320;48.128;11.592;2023-08-17T01:38:29;9.07;;;8.13;;
2620;SDS011;1320;48.128;11.592;2023-08-17T01:40:55;9.37;;;8.37;;
2620;SDS011;1320;48.128;11.592;2023-08-17T01:43:22;15.03;;;8.57;;
2620;SDS011;1320;48.128;11.592;2023-08-17T01:45:48;11.37;;;8.17;;
2620;SDS011;1320;48.128;11.592;2023-08-17T01:48:14;8.80;;;7.90;;
2620;SDS011;1320;48.128;11.592;2023-08-17T01:50:39;9.33;;;8.33;;
2620;SDS011;1320;48.128;11.592;2023-08-17T01:53:05;10.70;;;8.30;;
2620;SDS011;1320;48.128;11.592;2023-08-17T01:55:31;10.60;;;8.50;;
2620;SDS011;1320;48.128;11.592;2023-08-17T01:57:56;10.60;;;9.60;;
2620;SDS011;1320;48.128;11.592;2023-08-17T02:00:22;10.10;;;9.10;;
2620;SDS011;1320;48.128;11.592;2023-08-17T02:02:47;9.97;;;8.50;;
2620;SDS011;1320;48.128;11.592;2023-08-17T02:05:13;10.33;;;7.90;;
2620;SDS011;1320;48.128;11.592;2023-08-17T02:07:39;9.70;;;8.70;;
2620;SDS011;1320;48.128;11.592;2023-08-17T02:10:04;11.00;;;7.97;;
2620;SDS011;1320;48.128;11.592;2023-08-17T02:12:30;9.53;;;8.50;;
2620;SDS011;1320;48.128;11.592;2023-08-17T02:14:56;9.17;;;8.00;;
2620;SDS011;1320;48.128;11.592;2023-08-17T02:17:22;9.40;;;8.40;;
2620;SDS011;1320;48.128;11.592;2023-08-17T02:19:47;8.50;;;7.50;;
2620;SDS011;1320;48.128;11.592;2023-08-17T02:22:14;8.90;;;7.90;;
2620;SDS011;1320;48.128;11.592;2023-08-17T02:24:40;10.50;;;9.10;;
2620;SDS011;1320;48.128;11.592;2023-08-17T02:27:06;9.20;;;8.20;;
2620;SDS011;1320;48.128;11.592;2023-08-17T02:29:32;11.90;;;8.47;;
2620;SDS011;1320;48.128;11.592;2023-08-17T02:31:58;8.80;;;7.90;;
2620;SDS011;1320;48.128;11.592;2023-08-17T02:34:24;8.80;;;7.90;;
2620;SDS011;1320;48.128;11.592;2023-08-17T02:36:49;9.57;;;8.60;;
2620;SDS011;1320;48.128;11.592;2023-08-17T02:39:15;9.30;;;8.03;;
2620;SDS011;1320;48.128;11.592;2023-08-17T02:41:41;9.43;;;8.53;;
2620;SDS011;1320;48.128;11.592;2023-08-17T02:44:06;11.00;;;8.67;;
2620;SDS011;1320;48.128;11.592;2023-08-17T02:46:32;9.77;;;8.70;;
2620;SDS011;1320;48.128;11.592;2023-08-17T02:48:58;8.93;;;8.03;;
2620;SDS011;1320;48.128;11.592;2023-08-17T02:51:23;13.83;;;8.17;;
2620;SDS011;1320;48.128;11.592;2023-08-17T02:53:49;9.97;;;8.40;;
2620;SDS011;1320;48.128;11.592;2023-08-17T02:56:15;10.03;;;9.03;;
2620;SDS011;1320;48.128;11.592;2023-08-17T02:58:41;9.63;;;8.63;;
2620;SDS011;1320;48.128;11.592;2023-08-17T03:01:09;9.57;;;8.40;;
2620;SDS011;1320;48.128;11.592;2023-08-17T03:03:35;8.43;;;7.63;;
2620;SDS011;1320;48.128;11.592;2023-08-17T03:06:02;9.20;;;8.27;;
2620;SDS011;1320;48.128;11.592;2023-08-17T03:08:28;10.30;;;9.20;;
2620;SDS011;1320;48.128;11.592;2023-08-17T03:10:54;9.37;;;8.40;;
2620;SDS011;1320;48.128;11.592;2023-08-17T03:13:19;14.20;;;8.13;;
2620;SDS011;1320;48.128;11.592;2023-08-17T03:15:45;8.90;;;8.00;;
2620;SDS011;1320;48.128;11.592;2023-08-17T03:18:11;10.17;;;8.40;;
2620;SDS011;1320;48.128;11.592;2023-08-17T03:20:36;8.77;;;7.87;;
2620;SDS011;1320;48.128;11.592;2023-08-17T03:23:02;10.30;;;8.03;;
2620;SDS011;1320;48.128;11.592;2023-08-17T03:25:31;9.20;;;8.00;;
2620;SDS011;1320;48.128;11.592;2023-08-17T03:27:57;9.17;;;8.00;;
2620;SDS011;1320;48.128;11.592;2023-08-17T03:30:22;9.00;;;7.87;;
2620;SDS011;1320;48.128;11.592;2023-08-17T03:32:48;9.30;;;8.37;;
2620;SDS011;1320;48.128;11.592;2023-08-17T03:35:13;16.03;;;8.10;;
2620;SDS011;1320;48.128;11.592;2023-08-17T03:37:39;8.23;;;7.40;;
2620;SDS011;1320;48.128;11.592;2023-08-17T03:40:05;9.30;;;8.30;;
2620;SDS011;1320;48.128;11.592;2023-08-17T03:42:31;9.17;;;8.20;;
2620;SDS011;1320;48.128;11.592;2023-08-17T03:44:56;8.23;;;7.43;;
2620;SDS011;1320;48.128;11.592;2023-08-17T03:47:22;9.07;;;7.77;;
2620;SDS011;1320;48.128;11.592;2023-08-17T03:49:48;9.00;;;8.10;;
2620;SDS011;1320;48.128;11.592;2023-08-17T03:52:13;12.37;;;9.10;;
2620;SDS011;1320;48.128;11.592;2023-08-17T03:54:39;9.93;;;8.43;;
2620;SDS011;1320;48.128;11.592;2023-08-17T03:57:04;9.00;;;7.80;;
2620;SDS011;1320;48.128;11.592;2023-08-17T03:59:30;11.13;;;7.93;;
2620;SDS011;1320;48.128;11.592;2023-08-17T04:01:56;10.57;;;8.60;;
2620;SDS011;1320;48.128;11.592;2023-08-17T04:04:21;8.83;;;7.90;;
2620;SDS011;1320;48.128;11.592;2023-08-17T04:06:47;9.00;;;7.60;;
2620;SDS011;1320;48.128;11.592;2023-08-17T04:09:12;9.40;;;8.13;;
2620;SDS011;1320;48.128;11.592;2023-08-17T04:11:38;10.20;;;8.80;;
2620;SDS011;1320;48.128;11.592;2023-08-17T04:14:04;9.63;;;8.63;;
2620;SDS011;1320;48.128;11.592;2023-08-17T04:16:30;11.37;;;9.40;;
2620;SDS011;1320;48.128;11.592;2023-08-17T04:18:55;8.70;;;7.80;;
2620;SDS011;1320;48.128;11.592;2023-08-17T04:21:21;9.43;;;8.10;;
2620;SDS011;1320;48.128;11.592;2023-08-17T04:23:46;9.70;;;8.20;;
2620;SDS011;1320;48.128;11.592;2023-08-17T04:26:12;10.40;;;8.53;;
2620;SDS011;1320;48.128;11.592;2023-08-17T04:28:38;11.23;;;8.27;;
2620;SDS011;1320;48.128;11.592;2023-08-17T04:31:03;9.10;;;7.90;;
2620;SDS011;1320;48.128;11.592;2023-08-17T04:33:29;10.33;;;9.33;;
2620;SDS011;1320;48.128;11.592;2023-08-17T04:35:55;8.87;;;7.97;;
2620;SDS011;1320;48.128;11.592;2023-08-17T04:38:21;8.77;;;7.93;;
2620;SDS011;1320;48.128;11.592;2023-08-17T04:40:46;9.40;;;8.43;;
2620;SDS011;1320;48.128;11.592;2023-08-17T04:43:12;9.60;;;8.60;;
2620;SDS011;1320;48.128;11.592;2023-08-17T04:45:38;8.43;;;7.33;;
2620;SDS011;1320;48.128;11.592;2023-08-17T04:48:05;10.00;;;9.00;;
2620;SDS011;1320;48.128;11.592;2023-08-17T04:50:31;9.17;;;7.70;;
2620;SDS011;1320;48.128;11.592;2023-08-17T04:52:57;9.43;;;8.53;;
2620;SDS011;1320;48.128;11.592;2023-08-17T04:55:23;8.77;;;7.87;;
2620;SDS011;1320;48.128;11.592;2023-08-17T04:57:48;9.57;;;8.67;;
2620;SDS011;1320;48.128;11.592;2023-08-17T05:00:14;9.00;;;8.03;;
2620;SDS011;1320;48.128;11.592;2023-08-17T05:02:40;9.60;;;8.60;;
2620;SDS011;1320;48.128;11.592;2023-08-17T05:05:06;10.00;;;7.57;;
2620;SDS011;1320;48.128;11.592;2023-08-17T05:07:33;10.40;;;9.30;;
2620;SDS011;1320;48.128;11.592;2023-08-17T05:10:00;10.20;;;8.67;;
2620;SDS011;1320;48.128;11.592;2023-08-17T05:12:26;9.40;;;8.50;;
2620;SDS011;1320;48.128;11.592;2023-08-17T05:14:52;11.60;;;8.00;;
2620;SDS011;1320;48.128;11.592;2023-08-17T05:17:17;8.23;;;7.37;;
2620;SDS011;1320;48.128;11.592;2023-08-17T05:19:43;10.03;;;8.63;;
2620;SDS011;1320;48.128;11.592;2023-08-17T05:22:10;9.33;;;8.10;;
2620;SDS011;1320;48.128;11.592;2023-08-17T05:24:37;13.00;;;9.20;;
2620;SDS011;1320;48.128;11.592;2023-08-17T05:27:03;14.33;;;10.20;;
2620;SDS011;1320;48.128;11.592;2023-08-17T05:29:29;12.13;;;8.80;;
2620;SDS011;1320;48.128;11.592;2023-08-17T05:31:57;10.80;;;9.33;;
2620;SDS011;1320;48.128;11.592;2023-08-17T05:34:23;9.97;;;8.67;;
2620;SDS011;1320;48.128;11.592;2023-08-17T05:36:48;11.80;;;9.97;;
2620;SDS011;1320;48.128;11.592;2023-08-17T05:39:14;11.83;;;9.57;;
2620;SDS011;1320;48.128;11.592;2023-08-17T05:41:40;14.50;;;9.73;;
2620;SDS011;1320;48.128;11.592;2023-08-17T05:44:05;10.30;;;9.10;;
2620;SDS011;1320;48.128;11.592;2023-08-17T05:46:35;11.30;;;9.17;;
2620;SDS011;1320;48.128;11.592;2023-08-17T05:49:01;9.93;;;8.93;;
2620;SDS011;1320;48.128;11.592;2023-08-17T05:51:27;9.97;;;8.93;;
2620;SDS011;1320;48.128;11.592;2023-08-17T05:53:53;11.20;;;9.80;;
2620;SDS011;1320;48.128;11.592;2023-08-17T05:56:19;8.80;;;7.90;;
2620;SDS011;1320;48.128;11.592;2023-08-17T05:58:45;10.40;;;9.00;;
2620;SDS011;1320;48.128;11.592;2023-08-17T06:01:10;10.43;;;9.13;;
2620;SDS011;1320;48.128;11.592;2023-08-17T06:03:36;8.70;;;7.90;;
2620;SDS011;1320;48.128;11.592;2023-08-17T06:06:03;14.70;;;9.23;;
2620;SDS011;1320;48.128;11.592;2023-08-17T06:08:30;12.33;;;8.77;;
2620;SDS011;1320;48.128;11.592;2023-08-17T06:10:56;9.63;;;8.73;;
2620;SDS011;1320;48.128;11.592;2023-08-17T06:13:21;9.50;;;8.50;;
2620;SDS011;1320;48.128;11.592;2023-08-17T06:15:47;9.93;;;7.70;;
2620;SDS011;1320;48.128;11.592;2023-08-17T06:18:13;11.63;;;7.60;;
2620;SDS011;1320;48.128;11.592;2023-08-17T06:20:38;8.70;;;7.80;;
2620;SDS011;1320;48.128;11.592;2023-08-17T06:23:04;8.80;;;7.93;;
2620;SDS011;1320;48.128;11.592;2023-08-17T06:25:30;9.40;;;7.57;;
2620;SDS011;1320;48.128;11.592;2023-08-17T06:27:55;8.53;;;7.07;;
2620;SDS011;1320;48.128;11.592;2023-08-17T06:30:21;8.80;;;7.70;;
2620;SDS011;1320;48.128;11.592;2023-08-17T06:32:47;9.10;;;7.00;;
2620;SDS011;1320;48.128;11.592;2023-08-17T06:35:13;7.60;;;6.90;;
2620;SDS011;1320;48.128;11.592;2023-08-17T06:37:38;9.43;;;7.47;;
2620;SDS011;1320;48.128;11.592;2023-08-17T06:40:04;11.90;;;6.60;;
2620;SDS011;1320;48.128;11.592;2023-08-17T06:42:31;8.27;;;7.30;;
2620;SDS011;1320;48.128;11.592;2023-08-17T06:44:57;7.47;;;6.67;;
2620;SDS011;1320;48.128;11.592;2023-08-17T06:47:22;10.43;;;7.10;;
2620;SDS011;1320;48.128;11.592;2023-08-17T06:49:48;11.40;;;7.63;;
2620;SDS011;1320;48.128;11.592;2023-08-17T06:52:14;11.53;;;6.57;;
2620;SDS011;1320;48.128;11.592;2023-08-17T06:54:39;7.50;;;6.30;;
2620;SDS011;1320;48.128;11.592;2023-08-17T06:57:05;7.63;;;6.93;;
2620;SDS011;1320;48.128;11.592;2023-08-17T06:59:30;10.33;;;7.40;;
2620;SDS011;1320;48.128;11.592;2023-08-17T07:01:58;8.83;;;7.67;;
2620;SDS011;1320;48.128;11.592;2023-08-17T07:04:24;8.83;;;7.97;;
2620;SDS011;1320;48.128;11.592;2023-08-17T07:06:50;8.10;;;7.30;;
2620;SDS011;1320;48.128;11.592;2023-08-17T07:09:16;8.27;;;6.90;;
2620;SDS011;1320;48.128;11.592;2023-08-17T07:11:41;10.30;;;8.10;;
2620;SDS011;1320;48.128;11.592;2023-08-17T07:14:07;7.47;;;6.77;;
2620;SDS011;1320;48.128;11.592;2023-08-17T07:16:33;8.13;;;7.33;;
2620;SDS011;1320;48.128;11.592;2023-08-17T07:18:58;8.77;;;6.50;;
2620;SDS011;1320;48.128;11.592;2023-08-17T07:21:24;7.90;;;7.17;;
2620;SDS011;1320;48.128;11.592;2023-08-17T07:23:50;8.10;;;7.33;;
2620;SDS011;1320;48.128;11.592;2023-08-17T07:26:16;7.67;;;6.17;;
2620;SDS011;1320;48.128;11.592;2023-08-17T07:28:44;7.93;;;7.20;;
2620;SDS011;1320;48.128;11.592;2023-08-17T07:31:10;9.40;;;6.97;;
2620;SDS011;1320;48.128;11.592;2023-08-17T07:33:36;9.33;;;7.70;;
2620;SDS011;1320;48.128;11.592;2023-08-17T07:36:01;7.47;;;6.77;;
2620;SDS011;1320;48.128;11.592;2023-08-17T07:38:27;10.53;;;7.40;;
2620;SDS011;1320;48.128;11.592;2023-08-17T07:40:54;7.37;;;6.63;;
2620;SDS011;1320;48.128;11.592;2023-08-17T07:43:20;11.97;;;7.50;;
2620;SDS011;1320;48.128;11.592;2023-08-17T07:45:45;7.20;;;6.50;;
2620;SDS011;1320;48.128;11.592;2023-08-17T07:48:11;7.70;;;6.90;;
2620;SDS011;1320;48.128;11.592;2023-08-17T07:50:37;7.73;;;6.93;;
2620;SDS011;1320;48.128;11.592;2023-08-17T07:53:02;6.80;;;6.10;;
2620;SDS011;1320;48.128;11.592;2023-08-17T07:55:28;9.10;;;6.80;;
2620;SDS011;1320;48.128;11.592;2023-08-17T07:57:54;8.00;;;7.20;;
2620;SDS011;1320;48.128;11.592;2023-08-17T08:00:19;9.40;;;6.90;;
2620;SDS011;1320;48.128;11.592;2023-08-17T08:02:46;9.60;;;7.57;;
2620;SDS011;1320;48.128;11.592;2023-08-17T08:05:11;7.50;;;6.80;;
2620;SDS011;1320;48.128;11.592;2023-08-17T08:07:39;8.13;;;7.33;;
2620;SDS011;1320;48.128;11.592;2023-08-17T08:10:06;8.33;;;6.20;;
2620;SDS011;1320;48.128;11.592;2023-08-17T08:12:31;6.90;;;6.20;;
2620;SDS011;1320;48.128;11.592;2023-08-17T08:14:57;7.10;;;6.40;;
2620;SDS011;1320;48.128;11.592;2023-08-17T08:17:23;6.00;;;5.40;;
2620;SDS011;1320;48.128;11.592;2023-08-17T08:19:49;7.60;;;5.67;;
2620;SDS011;1320;48.128;11.592;2023-08-17T08:22:16;5.93;;;5.33;;
2620;SDS011;1320;48.128;11.592;2023-08-17T08:24:41;7.57;;;6.40;;
2620;SDS011;1320;48.128;11.592;2023-08-17T08:27:07;6.47;;;5.80;;
2620;SDS011;1320;48.128;11.592;2023-08-17T08:29:33;6.97;;;6.37;;
2620;SDS011;1320;48.128;11.592;2023-08-17T08:31:59;8.33;;;5.70;;
2620;SDS011;1320;48.128;11.592;2023-08-17T08:34:27;6.27;;;5.67;;
2620;SDS011;1320;48.128;11.592;2023-08-17T08:36:53;6.70;;;6.07;;
2620;SDS011;1320;48.128;11.592;2023-08-17T08:39:18;6.67;;;5.70;;
2620;SDS011;1320;48.128;11.592;2023-08-17T08:41:44;5.33;;;4.80;;
2620;SDS011;1320;48.128;11.592;2023-08-17T08:44:10;6.50;;;5.77;;
2620;SDS011;1320;48.128;11.592;2023-08-17T08:46:35;6.27;;;5.70;;
2620;SDS011;1320;48.128;11.592;2023-08-17T08:49:05;6.33;;;5.60;;
2620;SDS011;1320;48.128;11.592;2023-08-17T08:51:35;6.23;;;5.63;;
2620;SDS011;1320;48.128;11.592;2023-08-17T08:54:06;6.83;;;6.13;;
2620;SDS011;1320;48.128;11.592;2023-08-17T08:56:37;7.80;;;6.00;;
2620;SDS011;1320;48.128;11.592;2023-08-17T08:59:07;7.43;;;6.73;;
2620;SDS011;1320;48.128;11.592;2023-08-17T09:01:34;7.10;;;5.60;;
2620;SDS011;1320;48.128;11.592;2023-08-17T09:04:00;8.50;;;7.60;;
2620;SDS011;1320;48.128;11.592;2023-08-17T09:06:31;7.90;;;7.10;;
2620;SDS011;1320;48.128;11.592;2023-08-17T09:08:57;5.40;;;4.90;;
2620;SDS011;1320;48.128;11.592;2023-08-17T09:11:24;6.73;;;6.10;;
2620;SDS011;1320;48.128;11.592;2023-08-17T09:13:50;6.60;;;6.00;;
2620;SDS011;1320;48.128;11.592;2023-08-17T09:16:17;7.50;;;5.50;;
2620;SDS011;1320;48.128;11.592;2023-08-17T09:18:43;10.30;;;9.20;;
2620;SDS011;1320;48.128;11.592;2023-08-17T09:21:09;9.17;;;6.13;;
2620;SDS011;1320;48.128;11.592;2023-08-17T09:23:50;5.23;;;4.83;;
2620;SDS011;1320;48.128;11.592;2023-08-17T09:26:20;9.23;;;5.67;;
2620;SDS011;1320;48.128;11.592;2023-08-17T09:28:48;8.70;;;5.53;;
2620;SDS011;1320;48.128;11.592;2023-08-17T09:31:15;34.13;;;7.50;;
2620;SDS011;1320;48.128;11.592;2023-08-17T09:33:40;9.67;;;6.40;;
2620;SDS011;1320;48.128;11.592;2023-08-17T09:36:06;8.53;;;5.53;;
2620;SDS011;1320;48.128;11.592;2023-08-17T09:38:31;6.50;;;5.90;;
2620;SDS011;1320;48.128;11.592;2023-08-17T09:40:57;7.20;;;5.73;;
2620;SDS011;1320;48.128;11.592;2023-08-17T09:43:23;6.60;;;6.00;;
2620;SDS011;1320;48.128;11.592;2023-08-17T09:45:53;6.50;;;4.80;;
2620;SDS011;1320;48.128;11.592;2023-08-17T09:48:19;6.43;;;5.27;;
2620;SDS011;1320;48.128;11.592;2023-08-17T09:50:45;8.00;;;6.37;;
2620;SDS011;1320;48.128;11.592;2023-08-17T09:53:18;6.10;;;4.83;;
2620;SDS011;1320;48.128;11.592;2023-08-17T09:55:44;5.40;;;4.90;;
2620;SDS011;1320;48.128;11.592;2023-08-17T09:58:11;7.10;;;5.53;;
2620;SDS011;1320;48.128;11.592;2023-08-17T10:00:49;5.90;;;5.30;;
2620;SDS011;1320;48.128;11.592;2023-08-17T10:03:16;9.63;;;4.90;;
2620;SDS011;1320;48.128;11.592;2023-08-17T10:05:43;6.10;;;5.27;;
2620;SDS011;1320;48.128;11.592;2023-08-17T10:08:11;8.07;;;5.00;;
2620;SDS011;1320;48.128;11.592;2023-08-17T10:10:44;6.20;;;5.60;;
2620;SDS011;1320;48.128;11.592;2023-08-17T10:13:11;6.93;;;5.10;;
2620;SDS011;1320;48.128;11.592;2023-08-17T10:15:51;5.70;;;5.20;;
2620;SDS011;1320;48.128;11.592;2023-08-17T10:18:38;6.47;;;4.87;;
2620;SDS011;1320;48.128;11.592;2023-08-17T10:21:18;5.03;;;4.47;;
2620;SDS011;1320;48.128;11.592;2023-08-17T10:23:57;5.17;;;4.67;;
2620;SDS011;1320;48.128;11.592;2023-08-17T10:26:23;4.53;;;4.03;;
2620;SDS011;1320;48.128;11.592;2023-08-17T10:28:50;4.77;;;4.37;;
2620;SDS011;1320;48.128;11.592;2023-08-17T10:31:17;6.97;;;5.60;;
2620;SDS011;1320;48.128;11.592;2023-08-17T10:33:43;6.30;;;4.63;;
2620;SDS011;1320;48.128;11.592;2023-08-17T10:36:12;5.77;;;5.20;;
2620;SDS011;1320;48.128;11.592;2023-08-17T10:38:39;4.77;;;4.30;;
2620;SDS011;1320;48.128;11.592;2023-08-17T10:41:12;5.33;;;4.83;;
2620;SDS011;1320;48.128;11.592;2023-08-17T10:43:54;5.17;;;4.07;;
2620;SDS011;1320;48.128;11.592;2023-08-17T10:46:36;6.77;;;4.57;;
2620;SDS011;1320;48.128;11.592;2023-08-17T10:49:04;5.00;;;4.20;;
2620;SDS011;1320;48.128;11.592;2023-08-17T10:51:31;7.27;;;4.20;;
2620;SDS011;1320;48.128;11.592;2023-08-17T10:54:03;4.90;;;4.10;;
2620;SDS011;1320;48.128;11.592;2023-08-17T10:56:29;6.00;;;5.50;;
2620;SDS011;1320;48.128;11.592;2023-08-17T10:59:01;5.10;;;4.60;;
2620;SDS011;1320;48.128;11.592;2023-08-17T11:01:33;6.23;;;5.23;;
2620;SDS011;1320;48.128;11.592;2023-08-17T11:04:09;6.20;;;5.60;;
2620;SDS011;1320;48.128;11.592;2023-08-17T11:06:43;5.10;;;4.60;;
2620;SDS011;1320;48.128;11.592;2023-08-17T11:09:09;6.33;;;5.73;;
2620;SDS011;1320;48.128;11.592;2023-08-17T11:11:35;6.47;;;5.30;;
2620;SDS011;1320;48.128;11.592;2023-08-17T11:14:01;6.33;;;5.70;;
2620;SDS011;1320;48.128;11.592;2023-08-17T11:16:27;6.17;;;5.57;;
2620;SDS011;1320;48.128;11.592;2023-08-17T11:18:52;6.50;;;5.90;;
2620;SDS011;1320;48.128;11.592;2023-08-17T11:21:20;6.33;;;5.70;;
2620;SDS011;1320;48.128;11.592;2023-08-17T11:23:46;6.57;;;5.87;;
2620;SDS011;1320;48.128;11.592;2023-08-17T11:26:13;6.67;;;6.07;;
2620;SDS011;1320;48.128;11.592;2023-08-17T11:28:41;5.80;;;5.20;;
2620;SDS011;1320;48.128;11.592;2023-08-17T11:31:08;6.43;;;5.83;;
2620;SDS011;1320;48.128;11.592;2023-08-17T11:33:35;6.37;;;5.60;;
2620;SDS011;1320;48.128;11.592;2023-08-17T11:36:03;6.00;;;5.47;;
2620;SDS011;1320;48.128;11.592;2023-08-17T11:38:31;7.17;;;5.80;;
2620;SDS011;1320;48.128;11.592;2023-08-17T11:40:58;6.93;;;5.93;;
2620;SDS011;1320;48.128;11.592;2023-08-17T11:43:24;8.10;;;7.20;;
2620;SDS011;1320;48.128;11.592;2023-08-17T11:45:51;6.97;;;6.33;;
2620;SDS011;1320;48.128;11.592;2023-08-17T11:48:20;7.67;;;6.90;;
2620;SDS011;1320;48.128;11.592;2023-08-17T11:50:45;7.13;;;6.43;;
2620;SDS011;1320;48.128;11.592;2023-08-17T11:53:11;9.10;;;6.80;;
2620;SDS011;1320;48.128;11.592;2023-08-17T11:55:37;8.40;;;6.20;;
2620;SDS011;1320;48.128;11.592;2023-08-17T11:58:03;6.83;;;6.23;;
2620;SDS011;1320;48.128;11.592;2023-08-17T12:00:34;8.30;;;5.90;;
2620;SDS011;1320;48.128;11.592;2023-08-17T12:03:01;7.60;;;6.90;;
2620;SDS011;1320;48.128;11.592;2023-08-17T12:05:28;6.30;;;5.47;;
2620;SDS011;1320;48.128;11.592;2023-08-17T12:07:57;7.10;;;6.40;;
2620;SDS011;1320;48.128;11.592;2023-08-17T12:10:24;6.70;;;6.10;;
2620;SDS011;1320;48.128;11.592;2023-08-17T12:12:53;7.47;;;6.70;;
2620;SDS011;1320;48.128;11.592;2023-08-17T12:15:22;6.80;;;6.20;;
2620;SDS011;1320;48.128;11.592;2023-08-17T12:17:48;11.07;;;6.67;;
2620;SDS011;1320;48.128;11.592;2023-08-17T12:20:18;6.33;;;5.73;;
2620;SDS011;1320;48.128;11.592;2023-08-17T12:22:45;6.80;;;6.20;;
2620;SDS011;1320;48.128;11.592;2023-08-17T12:25:11;7.00;;;6.33;;
2620;SDS011;1320;48.128;11.592;2023-08-17T12:27:37;7.60;;;6.80;;
2620;SDS011;1320;48.128;11.592;2023-08-17T12:30:03;7.70;;;6.73;;
2620;SDS011;1320;48.128;11.592;2023-08-17T12:32:29;6.90;;;6.10;;
2620;SDS011;1320;48.128;11.592;2023-08-17T12:34:54;7.83;;;6.50;;
2620;SDS011;1320;48.128;11.592;2023-08-17T12:37:20;8.43;;;5.90;;
2620;SDS011;1320;48.128;11.592;2023-08-17T12:39:46;7.17;;;6.50;;
2620;SDS011;1320;48.128;11.592;2023-08-17T12:42:13;10.17;;;6.10;;
2620;SDS011;1320;48.128;11.592;2023-08-17T12:44:39;7.20;;;6.40;;
2620;SDS011;1320;48.128;11.592;2023-08-17T12:47:08;7.50;;;6.80;;
2620;SDS011;1320;48.128;11.592;2023-08-17T12:49:33;6.60;;;6.00;;
2620;SDS011;1320;48.128;11.592;2023-08-17T12:51:59;7.13;;;6.17;;
2620;SDS011;1320;48.128;11.592;2023-08-17T12:54:25;6.73;;;6.03;;
2620;SDS011;1320;48.128;11.592;2023-08-17T12:56:50;7.70;;;6.50;;
2620;SDS011;1320;48.128;11.592;2023-08-17T12:59:16;7.53;;;5.70;;
2620;SDS011;1320;48.128;11.592;2023-08-17T13:01:41;7.47;;;6.43;;
2620;SDS011;1320;48.128;11.592;2023-08-17T13:04:07;7.00;;;5.80;;
2620;SDS011;1320;48.128;11.592;2023-08-17T13:06:33;6.70;;;6.10;;
2620;SDS011;1320;48.128;11.592;2023-08-17T13:08:58;7.30;;;6.70;;
2620;SDS011;1320;48.128;11.592;2023-08-17T13:11:24;6.73;;;6.03;;
2620;SDS011;1320;48.128;11.592;2023-08-17T13:13:49;7.30;;;6.63;;
2620;SDS011;1320;48.128;11.592;2023-08-17T13:16:15;7.43;;;6.33;;
2620;SDS011;1320;48.128;11.592;2023-08-17T13:18:41;6.77;;;5.53;;
2620;SDS011;1320;48.128;11.592;2023-08-17T13:21:06;7.47;;;5.30;;
2620;SDS011;1320;48.128;11.592;2023-08-17T13:23:32;6.70;;;6.10;;
2620;SDS011;1320;48.128;11.592;2023-08-17T13:25:57;6.27;;;5.67;;
2620;SDS011;1320;48.128;11.592;2023-08-17T13:28:23;6.47;;;5.87;;
2620;SDS011;1320;48.128;11.592;2023-08-17T13:30:49;5.70;;;5.10;;
2620;SDS011;1320;48.128;11.592;2023-08-17T13:33:15;7.20;;;6.50;;
2620;SDS011;1320;48.128;11.592;2023-08-17T13:35:43;10.00;;;5.90;;
2620;SDS011;1320;48.128;11.592;2023-08-17T13:38:08;6.50;;;5.90;;
2620;SDS011;1320;48.128;11.592;2023-08-17T13:40:34;7.27;;;5.80;;
2620;SDS011;1320;48.128;11.592;2023-08-17T13:43:01;9.43;;;5.90;;
2620;SDS011;1320;48.128;11.592;2023-08-17T13:45:28;6.07;;;5.07;;
2620;SDS011;1320;48.128;11.592;2023-08-17T13:47:53;6.67;;;6.07;;
2620;SDS011;1320;48.128;11.592;2023-08-17T13:50:19;6.07;;;5.47;;
2620;SDS011;1320;48.128;11.592;2023-08-17T13:52:45;6.00;;;5.30;;
2620;SDS011;1320;48.128;11.592;2023-08-17T13:55:12;7.50;;;5.90;;
2620;SDS011;1320;48.128;11.592;2023-08-17T13:57:37;8.13;;;5.87;;
2620;SDS011;1320;48.128;11.592;2023-08-17T14:00:03;7.47;;;6.00;;
2620;SDS011;1320;48.128;11.592;2023-08-17T14:02:29;6.50;;;5.90;;
2620;SDS011;1320;48.128;11.592;2023-08-17T14:04:55;6.10;;;5.50;;
2620;SDS011;1320;48.128;11.592;2023-08-17T14:07:21;6.40;;;5.63;;
2620;SDS011;1320;48.128;11.592;2023-08-17T14:09:46;7.83;;;5.80;;
2620;SDS011;1320;48.128;11.592;2023-08-17T14:12:12;6.10;;;5.57;;
2620;SDS011;1320;48.128;11.592;2023-08-17T14:14:37;6.50;;;5.90;;
2620;SDS011;1320;48.128;11.592;2023-08-17T14:17:03;6.23;;;5.50;;
2620;SDS011;1320;48.128;11.592;2023-08-17T14:19:29;8.87;;;5.90;;
2620;SDS011;1320;48.128;11.592;2023-08-17T14:21:55;7.10;;;5.80;;
2620;SDS011;1320;48.128;11.592;2023-08-17T14:24:21;13.60;;;5.80;;
2620;SDS011;1320;48.128;11.592;2023-08-17T14:26:47;6.93;;;6.00;;
2620;SDS011;1320;48.128;11.592;2023-08-17T14:29:12;6.30;;;5.70;;
2620;SDS011;1320;48.128;11.592;2023-08-17T14:31:38;7.00;;;6.30;;
2620;SDS011;1320;48.128;11.592;2023-08-17T14:34:03;7.10;;;6.00;;
2620;SDS011;1320;48.128;11.592;2023-08-17T14:36:29;7.67;;;6.87;;
2620;SDS011;1320;48.128;11.592;2023-08-17T14:38:55;7.07;;;5.43;;
2620;SDS011;1320;48.128;11.592;2023-08-17T14:41:20;7.40;;;6.30;;
2620;SDS011;1320;48.128;11.592;2023-08-17T14:43:46;6.30;;;5.00;;
2620;SDS011;1320;48.128;11.592;2023-08-17T14:46:11;7.23;;;5.87;;
2620;SDS011;1320;48.128;11.592;2023-08-17T14:48:37;6.77;;;6.17;;
2620;SDS011;1320;48.128;11.592;2023-08-17T14:51:03;7.00;;;6.30;;
2620;SDS011;1320;48.128;11.592;2023-08-17T14:53:28;7.40;;;5.63;;
2620;SDS011;1320;48.128;11.592;2023-08-17T14:55:54;8.10;;;6.53;;
2620;SDS011;1320;48.128;11.592;2023-08-17T14:58:20;7.07;;;5.77;;
2620;SDS011;1320;48.128;11.592;2023-08-17T15:00:46;6.10;;;5.50;;